sensor_id;sensor_type;location;lat;lon;timestamp;temperature;humidity
13754;DHT22;6948;51.216;6.778;2023-04-29T00:00:03;13.10;99.90
13754;DHT22;6948;51.216;6.778;2023-04-29T00:02:33;13.00;99.90
13754;DHT22;6948;51.216;6.778;2023-04-29T00:04:59;12.90;99.90
13754;DHT22;6948;51.216;6.778;2023-04-29T00:07:25;13.00;99.90
13754;DHT22;6948;51.216;6.778;2023-04-29T00:09:51;12.90;99.90
13754;DHT22;6948;51.216;6.778;2023-04-29T00:12:17;12.80;99.90
13754;DHT22;6948;51.216;6.778;2023-04-29T00:14:43;12.70;99.90
13754;DHT22;6948;51.216;6.778;2023-04-29T00:17:08;12.60;99.90
13754;DHT22;6948;51.216;6.778;2023-04-29T00:19:34;12.60;99.90
13754;DHT22;6948;51.216;6.778;2023-04-29T00:22:00;12.50;99.90
13754;DHT22;6948;51.216;6.778;2023-04-29T00:24:26;12.40;99.90
13754;DHT22;6948;51.216;6.778;2023-04-29T00:26:52;12.40;99.90
13754;DHT22;6948;51.216;6.778;2023-04-29T00:29:17;12.40;99.90
13754;DHT22;6948;51.216;6.778;2023-04-29T00:31:43;12.30;99.90
13754;DHT22;6948;51.216;6.778;2023-04-29T00:34:09;12.20;99.90
13754;DHT22;6948;51.216;6.778;2023-04-29T00:36:35;12.10;99.90
13754;DHT22;6948;51.216;6.778;2023-04-29T00:39:01;12.10;99.90
13754;DHT22;6948;51.216;6.778;2023-04-29T00:41:27;12.10;99.90
13754;DHT22;6948;51.216;6.778;2023-04-29T00:43:53;12.00;99.90
13754;DHT22;6948;51.216;6.778;2023-04-29T00:46:19;12.00;99.90
13754;DHT22;6948;51.216;6.778;2023-04-29T00:48:44;12.00;99.90
13754;DHT22;6948;51.216;6.778;2023-04-29T00:51:10;12.00;99.90
13754;DHT22;6948;51.216;6.778;2023-04-29T00:53:36;12.10;99.90
13754;DHT22;6948;51.216;6.778;2023-04-29T00:56:03;12.00;99.90
13754;DHT22;6948;51.216;6.778;2023-04-29T00:58:29;12.00;99.90
13754;DHT22;6948;51.216;6.778;2023-04-29T01:01:00;12.00;99.90
13754;DHT22;6948;51.216;6.778;2023-04-29T01:03:27;12.00;99.90
13754;DHT22;6948;51.216;6.778;2023-04-29T01:06:06;11.90;99.90
13754;DHT22;6948;51.216;6.778;2023-04-29T01:08:47;11.90;99.90
13754;DHT22;6948;51.216;6.778;2023-04-29T01:11:21;11.90;99.90
13754;DHT22;6948;51.216;6.778;2023-04-29T01:13:50;11.80;99.90
13754;DHT22;6948;51.216;6.778;2023-04-29T01:16:36;11.80;99.90
13754;DHT22;6948;51.216;6.778;2023-04-29T01:19:14;11.80;99.90
13754;DHT22;6948;51.216;6.778;2023-04-29T01:21:46;11.80;99.90
13754;DHT22;6948;51.216;6.778;2023-04-29T01:24:13;11.80;99.90
13754;DHT22;6948;51.216;6.778;2023-04-29T01:26:41;11.70;99.90
13754;DHT22;6948;51.216;6.778;2023-04-29T01:29:32;11.70;99.90
13754;DHT22;6948;51.216;6.778;2023-04-29T01:32:12;11.70;99.90
13754;DHT22;6948;51.216;6.778;2023-04-29T01:35:02;11.80;99.90
13754;DHT22;6948;51.216;6.778;2023-04-29T01:37:53;11.70;99.90
13754;DHT22;6948;51.216;6.778;2023-04-29T01:40:25;11.70;99.90
13754;DHT22;6948;51.216;6.778;2023-04-29T01:43:03;11.80;99.90
13754;DHT22;6948;51.216;6.778;2023-04-29T01:45:31;11.70;99.90
13754;DHT22;6948;51.216;6.778;2023-04-29T01:47:58;11.70;99.90
13754;DHT22;6948;51.216;6.778;2023-04-29T01:50:25;11.70;99.90
13754;DHT22;6948;51.216;6.778;2023-04-29T01:52:51;11.70;99.90
13754;DHT22;6948;51.216;6.778;2023-04-29T01:55:16;11.60;99.90
13754;DHT22;6948;51.216;6.778;2023-04-29T01:57:42;11.60;99.90
13754;DHT22;6948;51.216;6.778;2023-04-29T02:00:08;11.60;99.90
13754;DHT22;6948;51.216;6.778;2023-04-29T02:02:34;11.60;99.90
13754;DHT22;6948;51.216;6.778;2023-04-29T02:05:00;11.50;99.90
13754;DHT22;6948;51.216;6.778;2023-04-29T02:07:26;11.40;99.90
13754;DHT22;6948;51.216;6.778;2023-04-29T02:09:52;11.40;99.90
13754;DHT22;6948;51.216;6.778;2023-04-29T02:12:18;11.40;99.90
13754;DHT22;6948;51.216;6.778;2023-04-29T02:14:44;11.40;99.90
13754;DHT22;6948;51.216;6.778;2023-04-29T02:17:12;11.40;99.90
13754;DHT22;6948;51.216;6.778;2023-04-29T02:19:38;11.30;99.90
13754;DHT22;6948;51.216;6.778;2023-04-29T02:22:03;11.30;99.90
13754;DHT22;6948;51.216;6.778;2023-04-29T02:24:29;11.30;99.90
13754;DHT22;6948;51.216;6.778;2023-04-29T02:26:55;11.30;99.90
13754;DHT22;6948;51.216;6.778;2023-04-29T02:29:21;11.20;99.90
13754;DHT22;6948;51.216;6.778;2023-04-29T02:31:47;11.20;99.90
13754;DHT22;6948;51.216;6.778;2023-04-29T02:34:12;11.00;99.90
13754;DHT22;6948;51.216;6.778;2023-04-29T02:36:38;11.00;99.90
13754;DHT22;6948;51.216;6.778;2023-04-29T02:39:04;11.10;99.90
13754;DHT22;6948;51.216;6.778;2023-04-29T02:41:29;11.10;99.90
13754;DHT22;6948;51.216;6.778;2023-04-29T02:43:55;11.00;99.90
13754;DHT22;6948;51.216;6.778;2023-04-29T02:46:20;11.00;99.90
13754;DHT22;6948;51.216;6.778;2023-04-29T02:48:46;11.00;99.90
13754;DHT22;6948;51.216;6.778;2023-04-29T02:51:12;11.00;99.90
13754;DHT22;6948;51.216;6.778;2023-04-29T02:53:38;11.00;99.90
13754;DHT22;6948;51.216;6.778;2023-04-29T02:56:04;11.00;99.90
13754;DHT22;6948;51.216;6.778;2023-04-29T02:58:30;10.90;99.90
13754;DHT22;6948;51.216;6.778;2023-04-29T03:00:56;10.80;99.90
13754;DHT22;6948;51.216;6.778;2023-04-29T03:03:21;10.80;99.90
13754;DHT22;6948;51.216;6.778;2023-04-29T03:05:47;10.80;99.90
13754;DHT22;6948;51.216;6.778;2023-04-29T03:08:13;10.80;99.90
13754;DHT22;6948;51.216;6.778;2023-04-29T03:10:39;10.80;99.90
13754;DHT22;6948;51.216;6.778;2023-04-29T03:13:05;10.80;99.90
13754;DHT22;6948;51.216;6.778;2023-04-29T03:15:30;10.80;99.90
13754;DHT22;6948;51.216;6.778;2023-04-29T03:17:56;10.80;99.90
13754;DHT22;6948;51.216;6.778;2023-04-29T03:20:24;10.70;99.90
13754;DHT22;6948;51.216;6.778;2023-04-29T03:22:49;10.70;99.90
13754;DHT22;6948;51.216;6.778;2023-04-29T03:25:15;10.60;99.90
13754;DHT22;6948;51.216;6.778;2023-04-29T03:27:40;10.60;99.90
13754;DHT22;6948;51.216;6.778;2023-04-29T03:30:07;10.60;99.90
13754;DHT22;6948;51.216;6.778;2023-04-29T03:32:33;10.50;99.90
13754;DHT22;6948;51.216;6.778;2023-04-29T03:34:58;10.40;99.90
13754;DHT22;6948;51.216;6.778;2023-04-29T03:37:24;10.50;99.90
13754;DHT22;6948;51.216;6.778;2023-04-29T03:39:50;10.40;99.90
13754;DHT22;6948;51.216;6.778;2023-04-29T03:42:15;10.40;99.90
13754;DHT22;6948;51.216;6.778;2023-04-29T03:44:41;10.40;99.90
13754;DHT22;6948;51.216;6.778;2023-04-29T03:47:07;10.40;99.90
13754;DHT22;6948;51.216;6.778;2023-04-29T03:49:32;10.40;99.90
13754;DHT22;6948;51.216;6.778;2023-04-29T03:51:58;10.50;99.90
13754;DHT22;6948;51.216;6.778;2023-04-29T03:54:24;10.50;99.90
13754;DHT22;6948;51.216;6.778;2023-04-29T03:56:49;10.60;99.90
13754;DHT22;6948;51.216;6.778;2023-04-29T03:59:15;10.60;99.90
13754;DHT22;6948;51.216;6.778;2023-04-29T04:01:41;10.60;99.90
13754;DHT22;6948;51.216;6.778;2023-04-29T04:04:06;10.60;99.90
13754;DHT22;6948;51.216;6.778;2023-04-29T04:06:32;10.60;99.90
13754;DHT22;6948;51.216;6.778;2023-04-29T04:08:57;10.50;99.90
13754;DHT22;6948;51.216;6.778;2023-04-29T04:11:23;10.50;99.90
13754;DHT22;6948;51.216;6.778;2023-04-29T04:13:49;10.60;99.90
13754;DHT22;6948;51.216;6.778;2023-04-29T04:16:14;10.60;99.90
13754;DHT22;6948;51.216;6.778;2023-04-29T04:18:40;10.60;99.90
13754;DHT22;6948;51.216;6.778;2023-04-29T04:21:08;10.60;99.90
13754;DHT22;6948;51.216;6.778;2023-04-29T04:23:34;10.60;99.90
13754;DHT22;6948;51.216;6.778;2023-04-29T04:26:00;10.60;99.90
13754;DHT22;6948;51.216;6.778;2023-04-29T04:28:26;10.50;99.90
13754;DHT22;6948;51.216;6.778;2023-04-29T04:30:51;10.60;99.90
13754;DHT22;6948;51.216;6.778;2023-04-29T04:33:17;10.60;99.90
13754;DHT22;6948;51.216;6.778;2023-04-29T04:35:43;10.60;99.90
13754;DHT22;6948;51.216;6.778;2023-04-29T04:38:08;10.50;99.90
13754;DHT22;6948;51.216;6.778;2023-04-29T04:40:36;10.50;99.90
13754;DHT22;6948;51.216;6.778;2023-04-29T04:43:01;10.50;99.90
13754;DHT22;6948;51.216;6.778;2023-04-29T04:45:27;10.60;99.90
13754;DHT22;6948;51.216;6.778;2023-04-29T04:47:54;10.70;99.90
13754;DHT22;6948;51.216;6.778;2023-04-29T04:50:20;10.70;99.90
13754;DHT22;6948;51.216;6.778;2023-04-29T04:52:46;10.70;99.90
13754;DHT22;6948;51.216;6.778;2023-04-29T04:55:11;10.70;99.90
13754;DHT22;6948;51.216;6.778;2023-04-29T04:57:37;10.70;99.90
13754;DHT22;6948;51.216;6.778;2023-04-29T05:00:03;10.70;99.90
13754;DHT22;6948;51.216;6.778;2023-04-29T05:02:29;10.70;99.90
13754;DHT22;6948;51.216;6.778;2023-04-29T05:04:55;10.60;99.90
13754;DHT22;6948;51.216;6.778;2023-04-29T05:07:21;10.50;99.90
13754;DHT22;6948;51.216;6.778;2023-04-29T05:09:46;10.50;99.90
13754;DHT22;6948;51.216;6.778;2023-04-29T05:12:12;10.50;99.90
13754;DHT22;6948;51.216;6.778;2023-04-29T05:14:38;10.50;99.90
13754;DHT22;6948;51.216;6.778;2023-04-29T05:17:04;10.50;99.90
13754;DHT22;6948;51.216;6.778;2023-04-29T05:19:29;10.50;99.90
13754;DHT22;6948;51.216;6.778;2023-04-29T05:21:55;10.50;99.90
13754;DHT22;6948;51.216;6.778;2023-04-29T05:24:21;10.50;99.90
13754;DHT22;6948;51.216;6.778;2023-04-29T05:26:46;10.50;99.90
13754;DHT22;6948;51.216;6.778;2023-04-29T05:29:14;10.50;99.90
13754;DHT22;6948;51.216;6.778;2023-04-29T05:31:40;10.50;99.90
13754;DHT22;6948;51.216;6.778;2023-04-29T05:34:05;10.40;99.90
13754;DHT22;6948;51.216;6.778;2023-04-29T05:36:31;10.40;99.90
13754;DHT22;6948;51.216;6.778;2023-04-29T05:38:57;10.40;99.90
13754;DHT22;6948;51.216;6.778;2023-04-29T05:41:23;10.50;99.90
13754;DHT22;6948;51.216;6.778;2023-04-29T05:43:49;10.50;99.90
13754;DHT22;6948;51.216;6.778;2023-04-29T05:46:15;10.50;99.90
13754;DHT22;6948;51.216;6.778;2023-04-29T05:48:41;10.60;99.90
13754;DHT22;6948;51.216;6.778;2023-04-29T05:51:07;10.60;99.90
13754;DHT22;6948;51.216;6.778;2023-04-29T05:53:33;10.60;99.90
13754;DHT22;6948;51.216;6.778;2023-04-29T05:56:00;10.60;99.90
13754;DHT22;6948;51.216;6.778;2023-04-29T05:58:29;10.60;99.90
13754;DHT22;6948;51.216;6.778;2023-04-29T06:00:54;10.80;99.90
13754;DHT22;6948;51.216;6.778;2023-04-29T06:03:20;10.80;99.90
13754;DHT22;6948;51.216;6.778;2023-04-29T06:05:45;10.80;99.90
13754;DHT22;6948;51.216;6.778;2023-04-29T06:08:11;10.80;99.90
13754;DHT22;6948;51.216;6.778;2023-04-29T06:10:37;10.80;99.90
13754;DHT22;6948;51.216;6.778;2023-04-29T06:13:02;10.90;99.90
13754;DHT22;6948;51.216;6.778;2023-04-29T06:15:28;10.90;99.90
13754;DHT22;6948;51.216;6.778;2023-04-29T06:17:54;10.90;99.90
13754;DHT22;6948;51.216;6.778;2023-04-29T06:20:19;11.00;99.90
13754;DHT22;6948;51.216;6.778;2023-04-29T06:22:45;11.00;99.90
13754;DHT22;6948;51.216;6.778;2023-04-29T06:25:11;10.90;99.90
13754;DHT22;6948;51.216;6.778;2023-04-29T06:27:38;10.90;99.90
13754;DHT22;6948;51.216;6.778;2023-04-29T06:30:04;10.90;99.90
13754;DHT22;6948;51.216;6.778;2023-04-29T06:32:30;11.00;99.90
13754;DHT22;6948;51.216;6.778;2023-04-29T06:34:55;10.90;99.90
13754;DHT22;6948;51.216;6.778;2023-04-29T06:37:21;10.90;99.90
13754;DHT22;6948;51.216;6.778;2023-04-29T06:39:47;10.80;99.90
13754;DHT22;6948;51.216;6.778;2023-04-29T06:42:12;10.70;99.90
13754;DHT22;6948;51.216;6.778;2023-04-29T06:44:38;10.70;99.90
13754;DHT22;6948;51.216;6.778;2023-04-29T06:47:04;10.80;99.90
13754;DHT22;6948;51.216;6.778;2023-04-29T06:49:29;10.70;99.90
13754;DHT22;6948;51.216;6.778;2023-04-29T06:51:55;10.70;99.90
13754;DHT22;6948;51.216;6.778;2023-04-29T06:54:20;10.80;99.90
13754;DHT22;6948;51.216;6.778;2023-04-29T06:56:46;10.80;99.90
13754;DHT22;6948;51.216;6.778;2023-04-29T06:59:12;10.90;99.90
13754;DHT22;6948;51.216;6.778;2023-04-29T07:01:39;10.90;99.90
13754;DHT22;6948;51.216;6.778;2023-04-29T07:04:05;11.00;99.90
13754;DHT22;6948;51.216;6.778;2023-04-29T07:06:31;10.90;99.90
13754;DHT22;6948;51.216;6.778;2023-04-29T07:08:56;11.00;99.90
13754;DHT22;6948;51.216;6.778;2023-04-29T07:11:22;10.90;99.90
13754;DHT22;6948;51.216;6.778;2023-04-29T07:13:51;10.90;99.90
13754;DHT22;6948;51.216;6.778;2023-04-29T07:16:16;10.90;99.90
13754;DHT22;6948;51.216;6.778;2023-04-29T07:18:44;10.90;99.90
13754;DHT22;6948;51.216;6.778;2023-04-29T07:21:36;10.90;99.90
13754;DHT22;6948;51.216;6.778;2023-04-29T07:24:03;10.80;99.90
13754;DHT22;6948;51.216;6.778;2023-04-29T07:26:42;10.90;99.90
13754;DHT22;6948;51.216;6.778;2023-04-29T07:29:26;10.90;99.90
13754;DHT22;6948;51.216;6.778;2023-04-29T07:31:55;11.00;99.90
13754;DHT22;6948;51.216;6.778;2023-04-29T07:34:21;11.10;99.90
13754;DHT22;6948;51.216;6.778;2023-04-29T07:36:47;11.20;99.90
13754;DHT22;6948;51.216;6.778;2023-04-29T07:39:13;11.30;99.90
13754;DHT22;6948;51.216;6.778;2023-04-29T07:41:39;11.40;99.90
13754;DHT22;6948;51.216;6.778;2023-04-29T07:44:05;11.40;99.90
13754;DHT22;6948;51.216;6.778;2023-04-29T07:46:33;11.50;99.90
13754;DHT22;6948;51.216;6.778;2023-04-29T07:48:59;11.40;99.90
13754;DHT22;6948;51.216;6.778;2023-04-29T07:51:25;11.40;99.90
13754;DHT22;6948;51.216;6.778;2023-04-29T07:53:53;11.20;99.90
13754;DHT22;6948;51.216;6.778;2023-04-29T07:56:18;11.20;99.90
13754;DHT22;6948;51.216;6.778;2023-04-29T07:58:47;11.10;99.90
13754;DHT22;6948;51.216;6.778;2023-04-29T08:01:13;11.10;99.90
13754;DHT22;6948;51.216;6.778;2023-04-29T08:03:39;11.00;99.90
13754;DHT22;6948;51.216;6.778;2023-04-29T08:06:05;11.00;99.90
13754;DHT22;6948;51.216;6.778;2023-04-29T08:08:31;11.00;99.90
13754;DHT22;6948;51.216;6.778;2023-04-29T08:10:57;11.00;99.90
13754;DHT22;6948;51.216;6.778;2023-04-29T08:13:23;11.00;99.90
13754;DHT22;6948;51.216;6.778;2023-04-29T08:15:49;11.00;99.90
13754;DHT22;6948;51.216;6.778;2023-04-29T08:18:15;11.10;99.90
13754;DHT22;6948;51.216;6.778;2023-04-29T08:20:41;11.10;99.90
13754;DHT22;6948;51.216;6.778;2023-04-29T08:23:07;11.10;99.90
13754;DHT22;6948;51.216;6.778;2023-04-29T08:25:32;11.20;99.90
13754;DHT22;6948;51.216;6.778;2023-04-29T08:27:58;11.30;99.90
13754;DHT22;6948;51.216;6.778;2023-04-29T08:30:24;11.30;99.90
13754;DHT22;6948;51.216;6.778;2023-04-29T08:32:50;11.20;99.90
13754;DHT22;6948;51.216;6.778;2023-04-29T08:35:15;11.20;99.90
13754;DHT22;6948;51.216;6.778;2023-04-29T08:37:41;11.20;99.90
13754;DHT22;6948;51.216;6.778;2023-04-29T08:40:08;11.30;99.90
13754;DHT22;6948;51.216;6.778;2023-04-29T08:42:35;11.30;99.90
13754;DHT22;6948;51.216;6.778;2023-04-29T08:45:02;11.30;99.90
13754;DHT22;6948;51.216;6.778;2023-04-29T08:47:30;11.40;99.90
13754;DHT22;6948;51.216;6.778;2023-04-29T08:50:00;11.50;99.90
13754;DHT22;6948;51.216;6.778;2023-04-29T08:52:26;11.50;99.90
13754;DHT22;6948;51.216;6.778;2023-04-29T08:54:52;11.50;99.90
13754;DHT22;6948;51.216;6.778;2023-04-29T08:57:19;11.40;99.90
13754;DHT22;6948;51.216;6.778;2023-04-29T08:59:45;11.40;99.90
13754;DHT22;6948;51.216;6.778;2023-04-29T09:02:14;11.40;99.90
13754;DHT22;6948;51.216;6.778;2023-04-29T09:04:52;11.30;99.90
13754;DHT22;6948;51.216;6.778;2023-04-29T09:07:20;11.30;99.90
13754;DHT22;6948;51.216;6.778;2023-04-29T09:09:47;11.30;99.90
13754;DHT22;6948;51.216;6.778;2023-04-29T09:12:13;11.30;99.90
13754;DHT22;6948;51.216;6.778;2023-04-29T09:14:39;11.30;99.90
13754;DHT22;6948;51.216;6.778;2023-04-29T09:17:05;11.30;99.90
13754;DHT22;6948;51.216;6.778;2023-04-29T09:19:32;11.30;99.90
13754;DHT22;6948;51.216;6.778;2023-04-29T09:21:59;11.30;99.90
13754;DHT22;6948;51.216;6.778;2023-04-29T09:24:27;11.30;99.90
13754;DHT22;6948;51.216;6.778;2023-04-29T09:26:53;11.30;99.90
13754;DHT22;6948;51.216;6.778;2023-04-29T09:29:19;11.30;99.90
13754;DHT22;6948;51.216;6.778;2023-04-29T09:31:46;11.30;99.90
13754;DHT22;6948;51.216;6.778;2023-04-29T09:34:12;11.10;99.90
13754;DHT22;6948;51.216;6.778;2023-04-29T09:39:20;11.20;99.90
13754;DHT22;6948;51.216;6.778;2023-04-29T09:44:32;11.10;99.90
13754;DHT22;6948;51.216;6.778;2023-04-29T09:47:04;11.20;99.90
13754;DHT22;6948;51.216;6.778;2023-04-29T09:54:45;11.20;99.90
13754;DHT22;6948;51.216;6.778;2023-04-29T09:57:12;11.20;99.90
13754;DHT22;6948;51.216;6.778;2023-04-29T09:59:40;11.30;99.90
13754;DHT22;6948;51.216;6.778;2023-04-29T10:02:12;11.40;99.90
13754;DHT22;6948;51.216;6.778;2023-04-29T10:04:40;11.30;99.90
13754;DHT22;6948;51.216;6.778;2023-04-29T10:07:08;11.30;99.90
13754;DHT22;6948;51.216;6.778;2023-04-29T10:09:35;11.20;99.90
13754;DHT22;6948;51.216;6.778;2023-04-29T10:12:04;11.20;99.90
13754;DHT22;6948;51.216;6.778;2023-04-29T10:14:38;11.30;99.90
13754;DHT22;6948;51.216;6.778;2023-04-29T10:17:10;11.40;99.90
13754;DHT22;6948;51.216;6.778;2023-04-29T10:19:46;11.40;99.90
13754;DHT22;6948;51.216;6.778;2023-04-29T10:22:23;11.50;99.90
13754;DHT22;6948;51.216;6.778;2023-04-29T10:24:52;11.40;99.90
13754;DHT22;6948;51.216;6.778;2023-04-29T10:27:20;11.50;99.90
13754;DHT22;6948;51.216;6.778;2023-04-29T10:29:47;11.50;99.90
13754;DHT22;6948;51.216;6.778;2023-04-29T10:32:15;11.50;99.90
13754;DHT22;6948;51.216;6.778;2023-04-29T10:34:42;11.50;99.90
13754;DHT22;6948;51.216;6.778;2023-04-29T10:37:09;11.50;99.90
13754;DHT22;6948;51.216;6.778;2023-04-29T10:39:43;11.60;99.90
13754;DHT22;6948;51.216;6.778;2023-04-29T10:42:24;11.80;99.90
13754;DHT22;6948;51.216;6.778;2023-04-29T10:50:58;11.90;99.90
13754;DHT22;6948;51.216;6.778;2023-04-29T10:53:24;11.90;99.90
13754;DHT22;6948;51.216;6.778;2023-04-29T10:56:02;12.10;99.90
13754;DHT22;6948;51.216;6.778;2023-04-29T10:58:44;12.20;99.90
13754;DHT22;6948;51.216;6.778;2023-04-29T11:01:12;12.20;99.90
13754;DHT22;6948;51.216;6.778;2023-04-29T11:06:23;12.40;99.90
13754;DHT22;6948;51.216;6.778;2023-04-29T11:08:59;12.40;99.90
13754;DHT22;6948;51.216;6.778;2023-04-29T11:11:26;12.50;99.90
13754;DHT22;6948;51.216;6.778;2023-04-29T11:13:51;12.60;99.90
13754;DHT22;6948;51.216;6.778;2023-04-29T11:16:25;12.60;99.90
13754;DHT22;6948;51.216;6.778;2023-04-29T11:19:04;12.70;99.90
13754;DHT22;6948;51.216;6.778;2023-04-29T11:21:33;12.80;99.90
13754;DHT22;6948;51.216;6.778;2023-04-29T11:23:59;13.00;99.90
13754;DHT22;6948;51.216;6.778;2023-04-29T11:26:26;13.10;99.90
13754;DHT22;6948;51.216;6.778;2023-04-29T11:28:53;13.30;99.90
13754;DHT22;6948;51.216;6.778;2023-04-29T11:31:19;13.40;99.90
13754;DHT22;6948;51.216;6.778;2023-04-29T11:33:45;13.30;99.90
13754;DHT22;6948;51.216;6.778;2023-04-29T11:36:11;13.20;99.90
13754;DHT22;6948;51.216;6.778;2023-04-29T11:38:39;13.10;99.90
13754;DHT22;6948;51.216;6.778;2023-04-29T11:41:06;13.10;99.90
13754;DHT22;6948;51.216;6.778;2023-04-29T11:43:32;13.10;99.90
13754;DHT22;6948;51.216;6.778;2023-04-29T11:45:57;13.20;99.90
13754;DHT22;6948;51.216;6.778;2023-04-29T11:48:25;13.30;99.90
13754;DHT22;6948;51.216;6.778;2023-04-29T11:50:57;13.20;99.90
13754;DHT22;6948;51.216;6.778;2023-04-29T11:53:25;13.20;99.90
13754;DHT22;6948;51.216;6.778;2023-04-29T11:55:53;13.20;99.90
13754;DHT22;6948;51.216;6.778;2023-04-29T11:58:20;13.20;99.90
13754;DHT22;6948;51.216;6.778;2023-04-29T12:00:46;13.30;99.90
13754;DHT22;6948;51.216;6.778;2023-04-29T12:05:52;13.60;99.90
13754;DHT22;6948;51.216;6.778;2023-04-29T12:08:22;14.20;99.90
13754;DHT22;6948;51.216;6.778;2023-04-29T12:10:48;14.70;99.90
13754;DHT22;6948;51.216;6.778;2023-04-29T12:13:16;15.10;99.90
13754;DHT22;6948;51.216;6.778;2023-04-29T12:15:43;15.40;99.90
13754;DHT22;6948;51.216;6.778;2023-04-29T12:18:09;15.60;99.90
13754;DHT22;6948;51.216;6.778;2023-04-29T12:20:34;15.70;99.90
13754;DHT22;6948;51.216;6.778;2023-04-29T12:23:18;15.80;99.90
13754;DHT22;6948;51.216;6.778;2023-04-29T12:25:55;16.00;99.90
13754;DHT22;6948;51.216;6.778;2023-04-29T12:28:21;16.20;99.90
13754;DHT22;6948;51.216;6.778;2023-04-29T12:30:49;16.10;99.90
13754;DHT22;6948;51.216;6.778;2023-04-29T12:33:22;16.10;99.90
13754;DHT22;6948;51.216;6.778;2023-04-29T12:35:49;15.90;99.90
13754;DHT22;6948;51.216;6.778;2023-04-29T12:38:19;15.40;99.90
13754;DHT22;6948;51.216;6.778;2023-04-29T12:40:45;15.10;99.90
13754;DHT22;6948;51.216;6.778;2023-04-29T12:43:11;14.90;99.90
13754;DHT22;6948;51.216;6.778;2023-04-29T12:45:37;14.80;99.90
13754;DHT22;6948;51.216;6.778;2023-04-29T12:48:04;14.80;99.90
13754;DHT22;6948;51.216;6.778;2023-04-29T12:50:33;14.80;99.90
13754;DHT22;6948;51.216;6.778;2023-04-29T12:52:59;15.00;99.90
13754;DHT22;6948;51.216;6.778;2023-04-29T12:55:25;15.00;99.90
13754;DHT22;6948;51.216;6.778;2023-04-29T12:57:51;15.00;99.90
13754;DHT22;6948;51.216;6.778;2023-04-29T13:00:17;15.00;99.90
13754;DHT22;6948;51.216;6.778;2023-04-29T13:02:45;15.00;99.90
13754;DHT22;6948;51.216;6.778;2023-04-29T13:05:12;15.00;99.90
13754;DHT22;6948;51.216;6.778;2023-04-29T13:07:37;14.90;99.90
13754;DHT22;6948;51.216;6.778;2023-04-29T13:10:04;15.00;99.90
13754;DHT22;6948;51.216;6.778;2023-04-29T13:12:31;15.00;99.90
13754;DHT22;6948;51.216;6.778;2023-04-29T13:14:57;15.00;99.90
13754;DHT22;6948;51.216;6.778;2023-04-29T13:17:22;15.10;99.90
13754;DHT22;6948;51.216;6.778;2023-04-29T13:19:48;15.00;99.90
13754;DHT22;6948;51.216;6.778;2023-04-29T13:22:15;14.90;99.90
13754;DHT22;6948;51.216;6.778;2023-04-29T13:24:40;14.80;99.90
13754;DHT22;6948;51.216;6.778;2023-04-29T13:27:06;14.70;99.90
13754;DHT22;6948;51.216;6.778;2023-04-29T13:29:32;14.60;99.90
13754;DHT22;6948;51.216;6.778;2023-04-29T13:31:57;14.50;99.90
13754;DHT22;6948;51.216;6.778;2023-04-29T13:34:23;14.50;99.90
13754;DHT22;6948;51.216;6.778;2023-04-29T13:36:49;14.30;99.90
13754;DHT22;6948;51.216;6.778;2023-04-29T13:39:14;14.30;99.90
13754;DHT22;6948;51.216;6.778;2023-04-29T13:41:41;14.30;99.90
13754;DHT22;6948;51.216;6.778;2023-04-29T13:44:06;14.40;99.90
13754;DHT22;6948;51.216;6.778;2023-04-29T13:46:32;14.40;99.90
13754;DHT22;6948;51.216;6.778;2023-04-29T13:48:58;14.30;99.90
13754;DHT22;6948;51.216;6.778;2023-04-29T13:51:23;14.20;99.90
13754;DHT22;6948;51.216;6.778;2023-04-29T13:53:49;14.20;99.90
13754;DHT22;6948;51.216;6.778;2023-04-29T13:56:15;14.20;99.90
13754;DHT22;6948;51.216;6.778;2023-04-29T13:58:40;14.20;99.90
13754;DHT22;6948;51.216;6.778;2023-04-29T14:01:07;14.10;99.90
13754;DHT22;6948;51.216;6.778;2023-04-29T14:03:32;14.10;99.90
13754;DHT22;6948;51.216;6.778;2023-04-29T14:05:58;14.10;99.90
13754;DHT22;6948;51.216;6.778;2023-04-29T14:08:24;14.10;99.90
13754;DHT22;6948;51.216;6.778;2023-04-29T14:10:49;14.10;99.90
13754;DHT22;6948;51.216;6.778;2023-04-29T14:13:15;14.00;99.90
13754;DHT22;6948;51.216;6.778;2023-04-29T14:15:42;14.20;99.90
13754;DHT22;6948;51.216;6.778;2023-04-29T14:18:07;14.20;99.90
13754;DHT22;6948;51.216;6.778;2023-04-29T14:20:34;14.20;99.90
13754;DHT22;6948;51.216;6.778;2023-04-29T14:23:00;14.10;99.90
13754;DHT22;6948;51.216;6.778;2023-04-29T14:25:26;14.20;99.90
13754;DHT22;6948;51.216;6.778;2023-04-29T14:27:52;14.20;99.90
13754;DHT22;6948;51.216;6.778;2023-04-29T14:30:17;14.20;99.90
13754;DHT22;6948;51.216;6.778;2023-04-29T14:32:43;14.30;99.90
13754;DHT22;6948;51.216;6.778;2023-04-29T14:35:09;14.30;99.90
13754;DHT22;6948;51.216;6.778;2023-04-29T14:37:35;14.30;99.90
13754;DHT22;6948;51.216;6.778;2023-04-29T14:40:01;14.40;99.90
13754;DHT22;6948;51.216;6.778;2023-04-29T14:42:26;14.40;99.90
13754;DHT22;6948;51.216;6.778;2023-04-29T14:44:52;14.40;99.90
13754;DHT22;6948;51.216;6.778;2023-04-29T14:47:18;14.40;99.90
13754;DHT22;6948;51.216;6.778;2023-04-29T14:49:44;14.50;99.90
13754;DHT22;6948;51.216;6.778;2023-04-29T14:52:10;14.60;99.90
13754;DHT22;6948;51.216;6.778;2023-04-29T14:54:36;14.60;99.90
13754;DHT22;6948;51.216;6.778;2023-04-29T14:57:01;14.60;99.90
13754;DHT22;6948;51.216;6.778;2023-04-29T14:59:27;14.70;99.90
13754;DHT22;6948;51.216;6.778;2023-04-29T15:01:55;14.60;99.90
13754;DHT22;6948;51.216;6.778;2023-04-29T15:04:21;14.60;99.90
13754;DHT22;6948;51.216;6.778;2023-04-29T15:06:48;14.60;99.90
13754;DHT22;6948;51.216;6.778;2023-04-29T15:09:14;14.60;99.90
13754;DHT22;6948;51.216;6.778;2023-04-29T15:11:41;14.70;99.90
13754;DHT22;6948;51.216;6.778;2023-04-29T15:14:07;14.70;99.90
13754;DHT22;6948;51.216;6.778;2023-04-29T15:16:33;14.70;99.90
13754;DHT22;6948;51.216;6.778;2023-04-29T15:18:59;14.80;99.90
13754;DHT22;6948;51.216;6.778;2023-04-29T15:21:25;14.90;99.90
13754;DHT22;6948;51.216;6.778;2023-04-29T15:23:51;15.10;99.90
13754;DHT22;6948;51.216;6.778;2023-04-29T15:26:17;15.10;99.90
13754;DHT22;6948;51.216;6.778;2023-04-29T15:28:44;15.20;99.90
13754;DHT22;6948;51.216;6.778;2023-04-29T15:31:10;15.10;99.90
13754;DHT22;6948;51.216;6.778;2023-04-29T15:33:36;15.10;99.90
13754;DHT22;6948;51.216;6.778;2023-04-29T15:36:02;15.10;99.90
13754;DHT22;6948;51.216;6.778;2023-04-29T15:38:28;15.10;99.90
13754;DHT22;6948;51.216;6.778;2023-04-29T15:40:54;15.20;99.90
13754;DHT22;6948;51.216;6.778;2023-04-29T15:43:26;15.20;99.90
13754;DHT22;6948;51.216;6.778;2023-04-29T15:45:51;15.20;99.90
13754;DHT22;6948;51.216;6.778;2023-04-29T15:48:17;15.20;99.90
13754;DHT22;6948;51.216;6.778;2023-04-29T15:50:43;15.20;99.90
13754;DHT22;6948;51.216;6.778;2023-04-29T15:53:08;15.40;99.90
13754;DHT22;6948;51.216;6.778;2023-04-29T15:55:34;15.60;99.90
13754;DHT22;6948;51.216;6.778;2023-04-29T15:58:00;15.80;99.90
13754;DHT22;6948;51.216;6.778;2023-04-29T16:00:25;15.90;99.90
13754;DHT22;6948;51.216;6.778;2023-04-29T16:02:52;15.90;99.90
13754;DHT22;6948;51.216;6.778;2023-04-29T16:05:17;15.80;99.90